createdAt,value
2017-12-31T00:00:30.412Z,993.5
2017-12-31T00:01:30.437Z,993.77
2017-12-31T00:02:30.450Z,993.54
2017-12-31T00:03:30.464Z,993.72
2017-12-31T00:04:30.481Z,993.67
2017-12-31T00:05:30.505Z,993.65
2017-12-31T00:07:30.536Z,993.65
2017-12-31T00:08:30.553Z,993.7
2017-12-31T00:09:30.576Z,993.8
2017-12-31T00:10:30.594Z,993.6
2017-12-31T00:11:30.612Z,993.86
2017-12-31T00:12:30.626Z,993.75
2017-12-31T00:13:30.644Z,993.82
2017-12-31T00:14:30.666Z,993.85
2017-12-31T00:15:30.679Z,993.92
2017-12-31T00:16:30.705Z,993.85
2017-12-31T00:17:30.723Z,993.91
2017-12-31T00:18:30.733Z,993.8
2017-12-31T00:19:30.756Z,993.94
2017-12-31T00:20:30.780Z,994
2017-12-31T00:21:30.834Z,993.94
2017-12-31T00:23:30.838Z,994.1
2017-12-31T00:24:30.851Z,994.04
2017-12-31T00:25:30.865Z,994.15
2017-12-31T00:26:30.877Z,994.22
2017-12-31T00:27:30.901Z,994.31
2017-12-31T00:28:30.917Z,994.28
2017-12-31T00:29:30.936Z,994.27
2017-12-31T00:30:30.955Z,994.3
2017-12-31T00:31:30.976Z,994.31
2017-12-31T00:32:30.986Z,994.25
2017-12-31T00:33:31.011Z,994.22
2017-12-31T00:34:31.029Z,994.4
2017-12-31T00:35:31.052Z,994.3
2017-12-31T00:36:31.063Z,994.37
2017-12-31T00:38:31.105Z,994.39
2017-12-31T00:39:31.123Z,994.41
2017-12-31T00:40:31.136Z,994.34
2017-12-31T00:41:31.155Z,994.37
2017-12-31T00:42:31.174Z,994.48
2017-12-31T00:43:31.184Z,994.46
2017-12-31T00:44:31.210Z,994.43
2017-12-31T00:45:31.225Z,994.43
2017-12-31T00:46:31.241Z,994.48
2017-12-31T00:47:31.257Z,994.6
2017-12-31T00:48:31.382Z,994.51
2017-12-31T00:49:31.293Z,994.4
2017-12-31T00:50:31.314Z,994.51
2017-12-31T00:51:31.333Z,994.51
2017-12-31T00:52:31.347Z,994.5
2017-12-31T00:53:31.420Z,994.58
2017-12-31T00:54:31.393Z,994.65
2017-12-31T00:55:31.417Z,994.65
2017-12-31T00:56:31.423Z,994.67
2017-12-31T00:57:31.435Z,994.74
2017-12-31T00:58:31.454Z,994.76
2017-12-31T00:59:31.473Z,994.76
2017-12-31T01:00:31.496Z,994.82
2017-12-31T01:01:31.513Z,994.85
2017-12-31T01:02:31.532Z,994.96
2017-12-31T01:03:31.556Z,994.91
2017-12-31T01:04:31.574Z,995.08
2017-12-31T01:05:31.585Z,995.03
2017-12-31T01:06:31.603Z,995.02
2017-12-31T01:07:31.616Z,995.07
2017-12-31T01:08:31.638Z,995.12
2017-12-31T01:10:31.680Z,995.19
2017-12-31T01:11:31.693Z,995.21
2017-12-31T01:12:31.717Z,995.28
2017-12-31T01:13:31.725Z,995.43
2017-12-31T01:14:31.747Z,995.35
2017-12-31T01:15:31.761Z,995.3
2017-12-31T01:16:31.777Z,995.38
2017-12-31T01:17:31.800Z,995.31
2017-12-31T01:18:31.814Z,995.37
2017-12-31T01:19:31.832Z,995.41
2017-12-31T01:20:31.860Z,995.27
2017-12-31T01:21:31.867Z,995.45
2017-12-31T01:22:31.886Z,995.5
2017-12-31T01:23:31.915Z,995.5
2017-12-31T01:24:31.922Z,995.58
2017-12-31T01:26:31.962Z,995.54
2017-12-31T01:27:31.979Z,995.86
2017-12-31T01:28:32.004Z,995.65
2017-12-31T01:29:32.013Z,995.68
2017-12-31T01:30:32.036Z,995.82
2017-12-31T01:31:32.048Z,995.71
2017-12-31T01:32:32.073Z,995.72
2017-12-31T01:33:32.098Z,995.62
2017-12-31T01:34:32.105Z,995.76
2017-12-31T01:35:32.123Z,995.75
2017-12-31T01:36:32.148Z,995.83
2017-12-31T01:37:32.157Z,995.85
2017-12-31T01:38:32.182Z,996
2017-12-31T01:39:32.191Z,995.93
2017-12-31T01:40:32.216Z,995.94
2017-12-31T01:42:32.244Z,995.93
2017-12-31T01:43:32.271Z,995.98
2017-12-31T01:44:32.288Z,995.97
2017-12-31T01:45:32.309Z,995.95
2017-12-31T01:46:32.327Z,995.97
2017-12-31T01:47:32.335Z,995.96
2017-12-31T01:48:32.360Z,996.1
2017-12-31T01:49:32.374Z,996.12
2017-12-31T01:50:32.391Z,996.14
2017-12-31T01:51:32.415Z,996.23
2017-12-31T01:52:32.428Z,996.17
2017-12-31T01:53:32.449Z,996.23
2017-12-31T01:54:32.465Z,996.28
2017-12-31T01:55:32.479Z,996.18
2017-12-31T01:56:32.500Z,996.21
2017-12-31T01:58:32.541Z,996.42
2017-12-31T01:59:32.555Z,996.32
2017-12-31T02:00:32.571Z,996.31
2017-12-31T02:01:32.589Z,996.37
2017-12-31T02:02:32.603Z,996.26
2017-12-31T02:03:32.621Z,996.41
2017-12-31T02:04:32.639Z,996.25
2017-12-31T02:05:32.663Z,996.25
2017-12-31T02:06:32.686Z,996.26
2017-12-31T02:07:32.705Z,996.32
2017-12-31T02:08:32.718Z,996.28
2017-12-31T02:09:32.735Z,996.34
2017-12-31T02:10:32.751Z,996.36
2017-12-31T02:11:32.777Z,996.43
2017-12-31T02:13:32.806Z,996.45
2017-12-31T02:14:32.818Z,996.56
2017-12-31T02:15:32.836Z,996.52
2017-12-31T02:16:32.855Z,996.48
2017-12-31T02:17:32.884Z,996.48
2017-12-31T02:18:32.895Z,996.46
2017-12-31T02:19:32.912Z,996.57
2017-12-31T02:20:32.931Z,996.62
2017-12-31T02:21:32.944Z,996.66
2017-12-31T02:22:32.972Z,996.71
2017-12-31T02:23:32.983Z,996.73
2017-12-31T02:24:32.997Z,996.69
2017-12-31T02:25:33.021Z,996.8
2017-12-31T02:26:33.039Z,996.74
2017-12-31T02:27:33.057Z,996.72
2017-12-31T02:28:33.080Z,996.76
2017-12-31T02:29:33.085Z,996.91
2017-12-31T02:30:33.103Z,996.71
2017-12-31T02:31:33.130Z,996.79
2017-12-31T02:32:33.149Z,996.71
2017-12-31T02:33:33.163Z,996.72
2017-12-31T02:34:33.176Z,996.8
2017-12-31T02:35:33.192Z,996.84
2017-12-31T02:36:33.215Z,996.84
2017-12-31T02:37:33.234Z,996.76
2017-12-31T02:38:33.251Z,996.85
2017-12-31T02:39:33.275Z,996.83
2017-12-31T02:40:33.285Z,996.87
2017-12-31T02:41:33.305Z,996.88
2017-12-31T02:42:33.322Z,996.88
2017-12-31T02:43:33.345Z,996.88
2017-12-31T02:45:33.371Z,996.91
2017-12-31T02:46:33.394Z,996.82
2017-12-31T02:47:33.408Z,996.88
2017-12-31T02:48:33.427Z,996.92
2017-12-31T02:49:33.449Z,996.89
2017-12-31T02:50:33.460Z,996.89
2017-12-31T02:51:33.487Z,997
2017-12-31T02:52:33.499Z,996.96
2017-12-31T02:53:33.518Z,996.96
2017-12-31T02:54:33.529Z,997.01
2017-12-31T02:55:33.553Z,997.04
2017-12-31T02:56:33.569Z,997.11
2017-12-31T02:57:33.587Z,997.13
2017-12-31T02:58:33.605Z,997.07
2017-12-31T02:59:33.618Z,997.07
2017-12-31T03:01:33.667Z,997.1
2017-12-31T03:02:33.678Z,997.11
2017-12-31T03:03:33.689Z,997.15
2017-12-31T03:04:33.714Z,997.15
2017-12-31T03:05:33.734Z,997.09
2017-12-31T03:06:33.746Z,997.1
2017-12-31T03:07:33.767Z,997.11
2017-12-31T03:08:33.788Z,997.13
2017-12-31T03:09:33.800Z,997.18
2017-12-31T03:10:33.820Z,997.19
2017-12-31T03:11:33.835Z,997.24
2017-12-31T03:12:33.856Z,997.34
2017-12-31T03:13:33.866Z,997.34
2017-12-31T03:14:33.889Z,997.45
2017-12-31T03:15:33.913Z,997.44
2017-12-31T03:17:33.943Z,997.48
2017-12-31T03:18:33.954Z,997.48
2017-12-31T03:19:33.979Z,997.53
2017-12-31T03:20:33.994Z,997.54
2017-12-31T03:21:34.006Z,997.49
2017-12-31T03:22:34.030Z,997.52
2017-12-31T03:23:34.043Z,997.47
2017-12-31T03:24:34.060Z,997.53
2017-12-31T03:25:34.076Z,997.5
2017-12-31T03:26:34.099Z,997.47
2017-12-31T03:27:34.115Z,997.47
2017-12-31T03:28:34.136Z,997.46
2017-12-31T03:29:34.147Z,997.48
2017-12-31T03:30:34.177Z,997.51
2017-12-31T03:31:34.180Z,997.54
2017-12-31T03:33:34.220Z,997.56
2017-12-31T03:34:34.241Z,997.62
2017-12-31T03:35:34.254Z,997.69
2017-12-31T03:36:34.269Z,997.7
2017-12-31T03:37:34.292Z,997.68
2017-12-31T03:38:34.313Z,997.66
2017-12-31T03:39:34.320Z,997.68
2017-12-31T03:40:34.339Z,997.69
2017-12-31T03:41:34.356Z,997.7
2017-12-31T03:42:34.378Z,997.78
2017-12-31T03:43:34.394Z,997.8
2017-12-31T03:44:34.413Z,997.82
2017-12-31T03:45:34.437Z,997.84
2017-12-31T03:46:34.443Z,997.85
2017-12-31T03:48:34.483Z,997.92
2017-12-31T03:49:34.499Z,997.94
2017-12-31T03:50:34.517Z,997.98
2017-12-31T03:51:34.532Z,997.99
2017-12-31T03:52:34.548Z,998.07
2017-12-31T03:53:34.565Z,998.02
2017-12-31T03:54:34.588Z,998.06
2017-12-31T03:55:34.610Z,998.05
2017-12-31T03:56:34.617Z,998.08
2017-12-31T03:57:34.645Z,998.05
2017-12-31T03:58:34.656Z,998.15
2017-12-31T03:59:34.674Z,998.15
2017-12-31T04:00:34.690Z,998.1
2017-12-31T04:01:34.704Z,998.13
2017-12-31T04:02:34.725Z,998.1
2017-12-31T04:03:34.749Z,998.22
2017-12-31T04:04:34.762Z,998.25
2017-12-31T04:05:34.774Z,998.25
2017-12-31T04:06:34.791Z,998.27
2017-12-31T04:07:34.811Z,998.3
2017-12-31T04:08:34.834Z,998.31
2017-12-31T04:09:34.844Z,998.27
2017-12-31T04:10:34.865Z,998.28
2017-12-31T04:11:34.881Z,998.34
2017-12-31T04:12:34.900Z,998.28
2017-12-31T04:13:34.912Z,998.3
2017-12-31T04:14:34.935Z,998.28
2017-12-31T04:15:34.953Z,998.28
2017-12-31T04:16:34.966Z,998.27
2017-12-31T04:17:34.992Z,998.27
2017-12-31T04:18:35.002Z,998.27
2017-12-31T04:20:35.033Z,998.28
2017-12-31T04:21:35.051Z,998.3
2017-12-31T04:22:35.072Z,998.34
2017-12-31T04:23:35.089Z,998.35
2017-12-31T04:24:35.114Z,998.33
2017-12-31T04:25:35.124Z,998.32
2017-12-31T04:26:35.147Z,998.35
2017-12-31T04:27:35.154Z,998.38
2017-12-31T04:28:35.172Z,998.39
2017-12-31T04:29:35.199Z,998.45
2017-12-31T04:30:35.209Z,998.49
2017-12-31T04:31:35.231Z,998.47
2017-12-31T04:32:35.241Z,998.43
2017-12-31T04:33:35.265Z,998.47
2017-12-31T04:34:35.279Z,998.53
2017-12-31T04:36:35.322Z,998.59
2017-12-31T04:37:35.328Z,998.63
2017-12-31T04:38:35.351Z,998.66
2017-12-31T04:39:35.363Z,998.71
2017-12-31T04:40:35.385Z,998.72
2017-12-31T04:41:35.400Z,998.73
2017-12-31T04:42:35.414Z,998.78
2017-12-31T04:43:35.442Z,998.77
2017-12-31T04:44:35.449Z,998.78
2017-12-31T04:45:35.468Z,998.73
2017-12-31T04:46:35.495Z,998.76
2017-12-31T04:47:35.514Z,998.73
2017-12-31T04:48:35.528Z,998.75
2017-12-31T04:49:35.542Z,998.78
2017-12-31T04:50:35.560Z,998.77
2017-12-31T04:52:35.597Z,998.73
2017-12-31T04:53:35.609Z,998.74
2017-12-31T04:54:35.622Z,998.63
2017-12-31T04:55:35.643Z,998.61
2017-12-31T04:56:35.662Z,998.64
2017-12-31T04:57:35.685Z,998.69
2017-12-31T04:58:35.702Z,998.64
2017-12-31T04:59:35.710Z,998.67
2017-12-31T05:00:35.734Z,998.62
2017-12-31T05:01:35.751Z,998.62
2017-12-31T05:02:35.769Z,998.64
2017-12-31T05:03:35.782Z,998.63
2017-12-31T05:04:35.807Z,998.65
2017-12-31T05:05:35.817Z,998.67
2017-12-31T05:06:35.834Z,998.73
2017-12-31T05:08:35.870Z,998.79
2017-12-31T05:09:35.887Z,998.88
2017-12-31T05:10:35.903Z,998.86
2017-12-31T05:11:35.922Z,998.87
2017-12-31T05:12:35.935Z,998.84
2017-12-31T05:13:35.962Z,998.8
2017-12-31T05:14:35.972Z,998.83
2017-12-31T05:15:35.993Z,998.83
2017-12-31T05:16:36.004Z,998.82
2017-12-31T05:17:36.029Z,998.83
2017-12-31T05:18:36.045Z,998.89
2017-12-31T05:19:36.066Z,998.91
2017-12-31T05:20:36.076Z,998.93
2017-12-31T05:21:36.100Z,998.92
2017-12-31T05:23:36.129Z,998.92
2017-12-31T05:24:36.152Z,998.89
2017-12-31T05:25:36.164Z,998.93
2017-12-31T05:26:36.186Z,998.88
2017-12-31T05:27:36.203Z,998.88
2017-12-31T05:28:36.211Z,998.87
2017-12-31T05:29:36.239Z,998.91
2017-12-31T05:30:36.249Z,998.94
2017-12-31T05:31:36.273Z,998.86
2017-12-31T05:32:36.291Z,998.85
2017-12-31T05:33:36.301Z,998.85
2017-12-31T05:34:36.315Z,998.84
2017-12-31T05:35:36.337Z,998.87
2017-12-31T05:36:36.359Z,998.88
2017-12-31T05:37:36.367Z,998.84
2017-12-31T05:38:36.391Z,998.86
2017-12-31T05:39:36.412Z,998.89
2017-12-31T05:40:36.428Z,998.89
2017-12-31T05:41:36.441Z,998.88
2017-12-31T05:42:36.452Z,998.9
2017-12-31T05:43:36.476Z,998.91
2017-12-31T05:44:36.494Z,998.98
2017-12-31T05:45:36.505Z,998.93
2017-12-31T05:46:36.533Z,998.93
2017-12-31T05:47:36.554Z,998.97
2017-12-31T05:48:36.561Z,998.99
2017-12-31T05:49:36.582Z,999
2017-12-31T05:50:36.590Z,999
2017-12-31T05:51:36.626Z,999.05
2017-12-31T05:52:36.632Z,999.07
2017-12-31T05:53:36.658Z,999.08
2017-12-31T05:55:36.681Z,999.04
2017-12-31T05:56:36.702Z,999.1
2017-12-31T05:57:36.726Z,999.11
2017-12-31T05:58:36.728Z,999.07
2017-12-31T05:59:36.758Z,999.07
2017-12-31T06:00:36.768Z,999.08
2017-12-31T06:01:36.784Z,999.15
2017-12-31T06:02:36.801Z,999.17
2017-12-31T06:03:36.821Z,999.19
2017-12-31T06:04:36.832Z,999.22
2017-12-31T06:05:36.852Z,999.17
2017-12-31T06:06:36.876Z,999.24
2017-12-31T06:07:36.894Z,999.27
2017-12-31T06:08:36.899Z,999.24
2017-12-31T06:09:36.928Z,999.26
2017-12-31T06:11:36.952Z,999.24
2017-12-31T06:12:36.969Z,999.25
2017-12-31T06:13:36.993Z,999.26
2017-12-31T06:14:37.013Z,999.28
2017-12-31T06:15:37.023Z,999.3
2017-12-31T06:16:37.038Z,999.3
2017-12-31T06:17:37.061Z,999.28
2017-12-31T06:18:37.075Z,999.33
2017-12-31T06:19:37.097Z,999.28
2017-12-31T06:20:37.106Z,999.26
2017-12-31T06:21:37.123Z,999.22
2017-12-31T06:22:37.148Z,999.19
2017-12-31T06:23:37.161Z,999.17
2017-12-31T06:24:37.181Z,999.13
2017-12-31T06:25:37.192Z,999.1
2017-12-31T06:27:37.226Z,999.14
2017-12-31T06:28:37.243Z,999.08
2017-12-31T06:29:37.264Z,999.16
2017-12-31T06:30:37.283Z,999.2
2017-12-31T06:31:37.297Z,999.18
2017-12-31T06:32:37.312Z,999.14
2017-12-31T06:33:37.330Z,999.18
2017-12-31T06:34:37.355Z,999.21
2017-12-31T06:35:37.375Z,999.23
2017-12-31T06:36:37.385Z,999.21
2017-12-31T06:37:37.409Z,999.23
2017-12-31T06:38:37.419Z,999.38
2017-12-31T06:39:37.434Z,999.4
2017-12-31T06:40:37.455Z,999.46
2017-12-31T06:41:37.470Z,999.42
2017-12-31T06:43:37.507Z,999.38
2017-12-31T06:44:37.531Z,999.32
2017-12-31T06:45:37.541Z,999.41
2017-12-31T06:46:37.558Z,999.4
2017-12-31T06:47:37.574Z,999.43
2017-12-31T06:48:37.594Z,999.46
2017-12-31T06:49:37.608Z,999.44
2017-12-31T06:50:37.621Z,999.48
2017-12-31T06:51:37.654Z,999.46
2017-12-31T06:52:37.655Z,999.45
2017-12-31T06:53:37.674Z,999.43
2017-12-31T06:54:37.693Z,999.35
2017-12-31T06:55:37.719Z,999.31
2017-12-31T06:56:37.729Z,999.28
2017-12-31T06:58:37.764Z,999.25
2017-12-31T06:59:37.819Z,999.28
2017-12-31T07:00:37.797Z,999.31
2017-12-31T07:01:37.815Z,999.36
2017-12-31T07:02:37.828Z,999.37
2017-12-31T07:03:37.849Z,999.39
2017-12-31T07:04:37.867Z,999.39
2017-12-31T07:05:37.890Z,999.4
2017-12-31T07:06:37.899Z,999.37
2017-12-31T07:07:37.913Z,999.34
2017-12-31T07:08:37.935Z,999.33
2017-12-31T07:09:37.952Z,999.31
2017-12-31T07:10:37.974Z,999.34
2017-12-31T07:11:37.985Z,999.33
2017-12-31T07:12:38.009Z,999.32
2017-12-31T07:13:38.020Z,999.33
2017-12-31T07:14:38.043Z,999.34
2017-12-31T07:15:38.060Z,999.35
2017-12-31T07:16:38.072Z,999.35
2017-12-31T07:17:38.082Z,999.33
2017-12-31T07:18:38.100Z,999.34
2017-12-31T07:19:38.125Z,999.36
2017-12-31T07:20:38.143Z,999.36
2017-12-31T07:21:38.152Z,999.38
2017-12-31T07:22:38.173Z,999.39
2017-12-31T07:23:38.190Z,999.41
2017-12-31T07:24:38.213Z,999.42
2017-12-31T07:25:38.222Z,999.39
2017-12-31T07:26:38.243Z,999.37
2017-12-31T07:27:38.259Z,999.39
2017-12-31T07:28:38.276Z,999.39
2017-12-31T07:30:38.308Z,999.41
2017-12-31T07:31:38.321Z,999.44
2017-12-31T07:32:38.343Z,999.45
2017-12-31T07:33:38.362Z,999.49
2017-12-31T07:34:38.374Z,999.46
2017-12-31T07:35:38.393Z,999.48
2017-12-31T07:36:38.410Z,999.42
2017-12-31T07:37:38.430Z,999.43
2017-12-31T07:38:38.440Z,999.46
2017-12-31T07:39:38.458Z,999.44
2017-12-31T07:40:38.485Z,999.48
2017-12-31T07:41:38.491Z,999.5
2017-12-31T07:42:38.510Z,999.49
2017-12-31T07:43:38.525Z,999.45
2017-12-31T07:44:38.549Z,999.46
2017-12-31T07:46:38.579Z,999.45
2017-12-31T07:47:38.595Z,999.45
2017-12-31T07:48:38.612Z,999.48
2017-12-31T07:49:38.629Z,999.49
2017-12-31T07:50:38.650Z,999.5
2017-12-31T07:51:38.667Z,999.51
2017-12-31T07:52:38.689Z,999.47
2017-12-31T07:53:38.705Z,999.48
2017-12-31T07:54:38.721Z,999.51
2017-12-31T07:55:38.738Z,999.54
2017-12-31T07:56:38.753Z,999.54
2017-12-31T07:57:38.770Z,999.54
2017-12-31T07:58:38.788Z,999.5
2017-12-31T07:59:38.811Z,999.49
2017-12-31T08:00:38.818Z,999.51
2017-12-31T08:02:38.866Z,999.51
2017-12-31T08:03:38.873Z,999.51
2017-12-31T08:04:38.897Z,999.49
2017-12-31T08:05:38.902Z,999.47
2017-12-31T08:06:38.920Z,999.41
2017-12-31T08:07:38.942Z,999.47
2017-12-31T08:08:38.959Z,999.53
2017-12-31T08:09:38.978Z,999.54
2017-12-31T08:10:38.994Z,999.52
2017-12-31T08:11:39.011Z,999.51
2017-12-31T08:12:39.034Z,999.54
2017-12-31T08:13:39.052Z,999.56
2017-12-31T08:14:39.065Z,999.57
2017-12-31T08:15:39.081Z,999.56
2017-12-31T08:16:39.092Z,999.54
2017-12-31T08:18:39.132Z,999.55
2017-12-31T08:19:39.149Z,999.58
2017-12-31T08:20:39.173Z,999.56
2017-12-31T08:21:39.180Z,999.53
2017-12-31T08:22:39.240Z,999.52
2017-12-31T08:23:39.218Z,999.47
2017-12-31T08:24:39.243Z,999.4
2017-12-31T08:25:39.259Z,999.43
2017-12-31T08:26:39.267Z,999.43
2017-12-31T08:27:39.294Z,999.4
2017-12-31T08:28:39.305Z,999.39
2017-12-31T08:29:39.329Z,999.41
2017-12-31T08:30:39.341Z,999.36
2017-12-31T08:31:39.362Z,999.36
2017-12-31T08:33:39.398Z,999.34
2017-12-31T08:34:39.407Z,999.28
2017-12-31T08:35:39.429Z,999.33
2017-12-31T08:36:39.457Z,999.33
2017-12-31T08:37:39.465Z,999.39
2017-12-31T08:38:39.482Z,999.38
2017-12-31T08:39:39.494Z,999.4
2017-12-31T08:40:39.524Z,999.36
2017-12-31T08:41:39.534Z,999.43
2017-12-31T08:42:39.547Z,999.4
2017-12-31T08:43:39.571Z,999.38
2017-12-31T08:44:39.607Z,999.4
2017-12-31T08:45:39.604Z,999.4
2017-12-31T08:46:39.622Z,999.37
2017-12-31T08:47:39.641Z,999.38
2017-12-31T08:48:39.659Z,999.35
2017-12-31T08:49:39.671Z,999.42
2017-12-31T08:50:39.695Z,999.38
2017-12-31T08:51:39.713Z,999.37
2017-12-31T08:52:39.726Z,999.38
2017-12-31T08:53:39.746Z,999.37
2017-12-31T08:54:39.798Z,999.35
2017-12-31T08:55:39.794Z,999.33
2017-12-31T08:56:39.794Z,999.35
2017-12-31T08:57:39.819Z,999.34
2017-12-31T08:58:39.840Z,999.34
2017-12-31T08:59:39.849Z,999.3
2017-12-31T09:00:39.869Z,999.34
2017-12-31T09:01:39.888Z,999.34
2017-12-31T09:02:39.906Z,999.34
2017-12-31T09:03:39.923Z,999.34
2017-12-31T09:05:39.956Z,999.31
2017-12-31T09:06:39.984Z,999.28
2017-12-31T09:07:39.994Z,999.29
2017-12-31T09:08:40.020Z,999.26
2017-12-31T09:09:40.031Z,999.28
2017-12-31T09:10:40.051Z,999.29
2017-12-31T09:11:40.067Z,999.25
2017-12-31T09:12:40.079Z,999.3
2017-12-31T09:13:40.098Z,999.32
2017-12-31T09:14:40.127Z,999.34
2017-12-31T09:15:40.140Z,999.3
2017-12-31T09:16:40.154Z,999.36
2017-12-31T09:17:40.171Z,999.4
2017-12-31T09:18:40.194Z,999.34
2017-12-31T09:19:40.215Z,999.31
2017-12-31T09:21:40.242Z,999.27
2017-12-31T09:22:40.358Z,999.28
2017-12-31T09:23:40.276Z,999.3
2017-12-31T09:24:40.306Z,999.33
2017-12-31T09:25:40.312Z,999.24
2017-12-31T09:26:40.337Z,999.22
2017-12-31T09:27:40.353Z,999.26
2017-12-31T09:28:40.372Z,999.22
2017-12-31T09:29:40.386Z,999.18
2017-12-31T09:30:40.407Z,999.17
2017-12-31T09:31:40.427Z,999.2
2017-12-31T09:32:40.454Z,999.21
2017-12-31T09:33:40.467Z,999.18
2017-12-31T09:34:40.483Z,999.17
2017-12-31T09:35:40.500Z,999.14
2017-12-31T09:37:40.533Z,999.12
2017-12-31T09:38:40.558Z,999.13
2017-12-31T09:39:40.571Z,999.06
2017-12-31T09:40:40.593Z,999.04
2017-12-31T09:41:40.608Z,999.02
2017-12-31T09:42:40.634Z,999.02
2017-12-31T09:43:40.642Z,998.95
2017-12-31T09:44:40.666Z,998.96
2017-12-31T09:45:40.677Z,998.93
2017-12-31T09:46:40.699Z,998.99
2017-12-31T09:47:40.710Z,998.9
2017-12-31T09:48:40.734Z,998.87
2017-12-31T09:49:40.748Z,998.89
2017-12-31T09:50:40.773Z,998.86
2017-12-31T09:51:40.788Z,998.85
2017-12-31T09:53:40.828Z,998.8
2017-12-31T09:54:40.835Z,998.86
2017-12-31T09:55:40.853Z,998.8
2017-12-31T09:56:40.875Z,998.77
2017-12-31T09:57:40.889Z,998.77
2017-12-31T09:58:40.906Z,998.74
2017-12-31T09:59:40.931Z,998.73
2017-12-31T10:00:40.977Z,998.72
2017-12-31T10:01:40.966Z,998.68
2017-12-31T10:02:40.983Z,998.65
2017-12-31T10:03:41.001Z,998.61
2017-12-31T10:04:41.019Z,998.59
2017-12-31T10:05:41.041Z,998.62
2017-12-31T10:06:41.057Z,998.61
2017-12-31T10:08:41.100Z,998.56
2017-12-31T10:09:41.106Z,998.58
2017-12-31T10:10:41.136Z,998.58
2017-12-31T10:11:41.155Z,998.54
2017-12-31T10:12:41.173Z,998.55
2017-12-31T10:13:41.190Z,998.51
2017-12-31T10:14:41.204Z,998.52
2017-12-31T10:15:41.215Z,998.5
2017-12-31T10:16:41.238Z,998.47
2017-12-31T10:17:41.262Z,998.43
2017-12-31T10:18:41.274Z,998.45
2017-12-31T10:19:41.288Z,998.4
2017-12-31T10:20:41.305Z,998.37
2017-12-31T10:21:41.327Z,998.33
2017-12-31T10:22:41.346Z,998.36
2017-12-31T10:23:41.362Z,998.32
2017-12-31T10:24:41.378Z,998.31
2017-12-31T10:25:41.396Z,998.32
2017-12-31T10:26:41.415Z,998.3
2017-12-31T10:27:41.436Z,998.27
2017-12-31T10:28:41.461Z,998.25
2017-12-31T10:29:41.480Z,998.2
2017-12-31T10:30:41.494Z,998.19
2017-12-31T10:31:41.504Z,998.16
2017-12-31T10:32:41.534Z,998.15
2017-12-31T10:33:41.546Z,998.18
2017-12-31T10:34:41.564Z,998.15
2017-12-31T10:35:41.583Z,998.17
2017-12-31T10:36:41.602Z,998.14
2017-12-31T10:37:41.615Z,998.14
2017-12-31T10:38:41.632Z,998.12
2017-12-31T10:40:41.680Z,998.1
2017-12-31T10:41:41.693Z,998.14
2017-12-31T10:42:41.705Z,998.11
2017-12-31T10:43:41.723Z,998.06
2017-12-31T10:44:41.749Z,998.03
2017-12-31T10:45:41.764Z,998.03
2017-12-31T10:46:41.781Z,998.03
2017-12-31T10:47:41.797Z,998
2017-12-31T10:48:41.815Z,997.99
2017-12-31T10:49:41.839Z,997.96
2017-12-31T10:50:41.856Z,997.96
2017-12-31T10:51:41.874Z,997.96
2017-12-31T10:52:41.987Z,997.98
2017-12-31T10:53:41.916Z,997.97
2017-12-31T10:54:41.928Z,997.89
2017-12-31T10:56:41.962Z,997.89
2017-12-31T10:57:41.984Z,997.91
2017-12-31T10:58:42.003Z,997.83
2017-12-31T10:59:42.026Z,997.87
2017-12-31T11:00:42.037Z,997.82
2017-12-31T11:01:42.051Z,997.83
2017-12-31T11:02:42.119Z,997.84
2017-12-31T11:03:42.100Z,997.78
2017-12-31T11:04:42.111Z,997.82
2017-12-31T11:05:42.130Z,997.77
2017-12-31T11:06:42.143Z,997.78
2017-12-31T11:07:42.170Z,997.76
2017-12-31T11:08:42.183Z,997.75
2017-12-31T11:09:42.203Z,997.75
2017-12-31T11:10:42.227Z,997.74
2017-12-31T11:12:42.257Z,997.74
2017-12-31T11:13:42.285Z,997.68
2017-12-31T11:14:42.331Z,997.67
2017-12-31T11:15:42.323Z,997.68
2017-12-31T11:16:42.326Z,997.64
2017-12-31T11:17:42.350Z,997.64
2017-12-31T11:18:42.364Z,997.62
2017-12-31T11:19:42.386Z,997.62
2017-12-31T11:20:42.407Z,997.59
2017-12-31T11:21:42.418Z,997.61
2017-12-31T11:22:42.439Z,997.57
2017-12-31T11:23:42.458Z,997.54
2017-12-31T11:24:42.484Z,997.63
2017-12-31T11:25:42.497Z,997.61
2017-12-31T11:26:42.519Z,997.62
2017-12-31T11:28:42.554Z,997.55
2017-12-31T11:29:42.569Z,997.58
2017-12-31T11:30:42.587Z,997.57
2017-12-31T11:31:42.994Z,997.59
2017-12-31T11:32:42.625Z,997.51
2017-12-31T11:33:42.645Z,997.48
2017-12-31T11:34:42.664Z,997.43
2017-12-31T11:35:42.677Z,997.42
2017-12-31T11:36:42.701Z,997.49
2017-12-31T11:37:42.716Z,997.55
2017-12-31T11:38:42.736Z,997.54
2017-12-31T11:39:42.861Z,997.5
2017-12-31T11:40:42.768Z,997.5
2017-12-31T11:41:42.799Z,997.49
2017-12-31T11:43:42.829Z,997.47
2017-12-31T11:44:42.847Z,997.52
2017-12-31T11:45:42.865Z,997.53
2017-12-31T11:46:42.881Z,997.5
2017-12-31T11:47:42.902Z,997.42
2017-12-31T11:48:42.922Z,997.47
2017-12-31T11:49:42.940Z,997.39
2017-12-31T11:50:42.958Z,997.42
2017-12-31T11:51:42.972Z,997.35
2017-12-31T11:52:42.998Z,997.37
2017-12-31T11:53:43.111Z,997.33
2017-12-31T11:54:43.030Z,997.32
2017-12-31T11:55:43.057Z,997.31
2017-12-31T11:56:43.073Z,997.29
2017-12-31T11:57:43.086Z,997.32
2017-12-31T11:58:43.107Z,997.25
2017-12-31T11:59:43.125Z,997.27
2017-12-31T12:00:43.150Z,997.28
2017-12-31T12:01:43.165Z,997.26
2017-12-31T12:02:43.183Z,997.24
2017-12-31T12:03:43.203Z,997.26
2017-12-31T12:04:43.221Z,997.19
2017-12-31T12:05:43.346Z,997.27
2017-12-31T12:06:43.252Z,997.26
2017-12-31T12:07:43.271Z,997.22
2017-12-31T12:08:43.293Z,997.25
2017-12-31T12:09:43.314Z,997.25
2017-12-31T12:10:43.327Z,997.22
2017-12-31T12:11:43.347Z,997.2
2017-12-31T12:12:43.370Z,997.11
2017-12-31T12:13:43.394Z,997.16
2017-12-31T12:15:43.421Z,997.28
2017-12-31T12:16:43.452Z,997.24
2017-12-31T12:17:43.463Z,997.24
2017-12-31T12:18:43.483Z,997.22
2017-12-31T12:19:43.501Z,997.17
2017-12-31T12:20:43.524Z,997.15
2017-12-31T12:21:43.587Z,997.13
2017-12-31T12:22:43.562Z,997.13
2017-12-31T12:23:43.584Z,997.12
2017-12-31T12:24:43.595Z,997.05
2017-12-31T12:25:43.614Z,997.04
2017-12-31T12:26:43.640Z,997.05
2017-12-31T12:27:43.650Z,997.05
2017-12-31T12:28:43.672Z,997.06
2017-12-31T12:29:43.730Z,997.06
2017-12-31T12:31:43.725Z,996.98
2017-12-31T12:32:43.747Z,997
2017-12-31T12:33:43.769Z,997.01
2017-12-31T12:34:43.788Z,996.98
2017-12-31T12:35:43.813Z,996.98
2017-12-31T12:36:43.820Z,996.99
2017-12-31T12:37:43.851Z,996.9
2017-12-31T12:38:43.880Z,996.95
2017-12-31T12:39:43.889Z,996.91
2017-12-31T12:40:43.910Z,996.94
2017-12-31T12:41:43.925Z,996.93
2017-12-31T12:42:43.945Z,996.85
2017-12-31T12:43:43.963Z,996.86
2017-12-31T12:44:43.976Z,996.83
2017-12-31T12:45:44.001Z,996.79
2017-12-31T12:47:44.040Z,996.79
2017-12-31T12:48:44.058Z,996.84
2017-12-31T12:49:44.079Z,996.83
2017-12-31T12:50:44.104Z,996.8
2017-12-31T12:51:44.120Z,996.82
2017-12-31T12:52:44.136Z,996.85
2017-12-31T12:53:44.152Z,996.84
2017-12-31T12:54:44.175Z,996.82
2017-12-31T12:55:44.201Z,996.77
2017-12-31T12:56:44.215Z,996.81
2017-12-31T12:57:44.233Z,996.73
2017-12-31T12:58:44.249Z,996.76
2017-12-31T12:59:44.269Z,996.83
2017-12-31T13:00:44.296Z,996.79
2017-12-31T13:01:44.319Z,996.76
2017-12-31T13:03:44.352Z,996.73
2017-12-31T13:04:44.368Z,996.72
2017-12-31T13:05:44.387Z,996.74
2017-12-31T13:06:44.413Z,996.76
2017-12-31T13:07:44.426Z,996.8
2017-12-31T13:08:44.456Z,996.83
2017-12-31T13:09:44.466Z,996.76
2017-12-31T13:10:44.485Z,996.74
2017-12-31T13:11:44.506Z,996.74
2017-12-31T13:12:44.528Z,996.69
2017-12-31T13:13:44.550Z,996.71